Time;durP1;ratioP1;P1;durP2;ratioP2;P2;SDS_P1;SDS_P2;PMS_P1;PMS_P2;Temp;Humidity;BMP_temperature;BMP_pressure;BME280_temperature;BME280_humidity;BME280_pressure;Samples;Min_cycle;Max_cycle;Signal;HPM_P1;HPM_P2
2022/02/11 00:00:27;;;;;;;15.43;7.28;;;;;;;;;;1763163;80;21559;-68
2022/02/11 00:05:47;;;;;;;15.78;10.63;;;;;;;;;;1760076;81;21091;-69
2022/02/11 00:07:41;;;;;;;13.28;6.90;;;;;;;;;;1747825;82;21072;-70
2022/02/11 00:10:07;;;;;;;14.55;10.15;;;;;;;;;;1748099;82;21028;-71
2022/02/11 00:12:36;;;;;;;13.25;6.95;;;;;;;;;;1747811;82;21072;-71
2022/02/11 00:17:40;;;;;;;15.13;8.15;;;;;;;;;;1748145;82;21036;-71
2022/02/11 00:20:06;;;;;;;15.23;8.73;;;;;;;;;;1747779;82;21056;-70
2022/02/11 00:22:33;;;;;;;12.23;6.45;;;;;;;;;;1747839;82;21544;-71
2022/02/11 00:24:59;;;;;;;11.73;7.40;;;;;;;;;;1747721;82;21065;-70
2022/02/11 00:35:42;;;;;;;16.05;7.60;;;;;;;;;;1747766;82;21021;-71
2022/02/11 00:38:09;;;;;;;16.02;7.10;;;;;;;;;;1748260;80;20998;-71
2022/02/11 00:41:14;;;;;;;12.82;7.28;;;;;;;;;;1748318;80;21646;-71
2022/02/11 01:02:31;;;;;;;15.45;7.40;;;;;;;;;;1747842;81;21108;-70
2022/02/11 01:04:48;;;;;;;13.15;7.53;;;;;;;;;;1748363;80;21097;-70
2022/02/11 01:07:14;;;;;;;13.60;8.60;;;;;;;;;;1748149;82;21006;-70
2022/02/11 01:09:41;;;;;;;11.63;6.70;;;;;;;;;;1748077;82;20966;-70
2022/02/11 01:12:09;;;;;;;13.93;9.43;;;;;;;;;;1748142;82;21064;-70
2022/02/11 01:14:38;;;;;;;16.40;8.28;;;;;;;;;;1747666;82;21053;-70
2022/02/11 01:17:27;;;;;;;12.70;6.83;;;;;;;;;;1747987;82;21496;-70
2022/02/11 01:30:38;;;;;;;16.05;9.20;;;;;;;;;;1747765;82;20993;-70
2022/02/11 01:33:21;;;;;;;14.23;7.47;;;;;;;;;;1748595;81;21571;-70
2022/02/11 01:35:49;;;;;;;13.03;8.08;;;;;;;;;;1749038;80;22206;-70
2022/02/11 01:38:25;;;;;;;12.45;7.83;;;;;;;;;;1748448;80;21112;-70
2022/02/11 01:53:42;;;;;;;12.88;7.20;;;;;;;;;;1747982;82;20993;-69
2022/02/11 01:56:17;;;;;;;15.38;8.03;;;;;;;;;;1747809;82;21024;-69
2022/02/11 01:59:24;;;;;;;14.07;7.00;;;;;;;;;;1748112;82;21056;-70
2022/02/11 02:10:30;;;;;;;13.70;7.47;;;;;;;;;;1779392;81;21069;-71
2022/02/11 02:12:53;;;;;;;14.83;7.45;;;;;;;;;;1776075;81;21078;-70
2022/02/11 02:23:26;;;;;;;12.85;7.95;;;;;;;;;;1761185;81;21028;-70
2022/02/11 02:50:20;;;;;;;11.48;6.70;;;;;;;;;;1761737;81;21048;-70
2022/02/11 02:58:18;;;;;;;9.90;6.00;;;;;;;;;;1755998;82;21550;-69
2022/02/11 03:14:56;;;;;;;12.63;7.40;;;;;;;;;;1676541;85;21059;-70
2022/02/11 03:17:45;;;;;;;10.72;5.70;;;;;;;;;;1692643;84;21054;-70
2022/02/11 03:49:29;;;;;;;9.30;5.53;;;;;;;;;;1707075;84;21064;-69
2022/02/11 03:57:36;;;;;;;10.95;5.78;;;;;;;;;;1650583;87;21112;-70
2022/02/11 04:57:01;;;;;;;11.57;6.22;;;;;;;;;;1683666;85;22067;-70
2022/02/11 04:59:46;;;;;;;11.75;6.72;;;;;;;;;;1683491;85;21036;-72
2022/02/11 05:02:05;;;;;;;10.68;6.00;;;;;;;;;;1681664;85;21111;-71
2022/02/11 05:04:32;;;;;;;12.73;6.83;;;;;;;;;;1682617;85;21061;-71
2022/02/11 05:06:59;;;;;;;13.70;8.80;;;;;;;;;;1684422;85;20982;-72
2022/02/11 05:09:25;;;;;;;10.98;5.80;;;;;;;;;;1695870;83;20973;-71
2022/02/11 05:11:51;;;;;;;13.45;7.25;;;;;;;;;;1683241;83;21305;-71
2022/02/11 05:14:17;;;;;;;12.98;7.42;;;;;;;;;;1686475;83;21026;-71
2022/02/11 05:16:44;;;;;;;13.80;8.40;;;;;;;;;;1692478;82;21496;-71
2022/02/11 05:19:10;;;;;;;12.00;6.35;;;;;;;;;;1730970;82;21057;-70
2022/02/11 05:21:36;;;;;;;13.70;6.70;;;;;;;;;;1716757;83;20966;-70
2022/02/11 05:24:02;;;;;;;12.82;7.78;;;;;;;;;;1719537;83;21020;-70
2022/02/11 05:26:29;;;;;;;15.28;8.33;;;;;;;;;;1703973;83;21056;-70
2022/02/11 05:28:55;;;;;;;16.60;8.05;;;;;;;;;;1719618;83;21056;-71
2022/02/11 05:31:21;;;;;;;11.95;7.00;;;;;;;;;;1719631;83;21064;-70
2022/02/11 05:33:47;;;;;;;13.60;6.72;;;;;;;;;;1717169;83;21048;-70
2022/02/11 05:36:15;;;;;;;11.83;6.50;;;;;;;;;;1727311;83;21516;-70
2022/02/11 05:38:41;;;;;;;14.40;8.00;;;;;;;;;;1718770;82;21043;-71
2022/02/11 05:41:08;;;;;;;16.40;7.97;;;;;;;;;;1730444;82;21048;-71
2022/02/11 05:43:36;;;;;;;13.20;6.70;;;;;;;;;;1733692;82;21080;-70
2022/02/11 05:46:01;;;;;;;13.15;6.78;;;;;;;;;;1730170;82;20984;-71
2022/02/11 05:48:28;;;;;;;17.87;8.38;;;;;;;;;;1738910;82;21017;-70
2022/02/11 05:50:54;;;;;;;17.10;9.75;;;;;;;;;;1733011;82;20977;-70
2022/02/11 05:53:20;;;;;;;19.35;8.25;;;;;;;;;;1731005;82;21135;-71
2022/02/11 05:55:46;;;;;;;16.35;8.43;;;;;;;;;;1728659;82;21024;-70
2022/02/11 05:58:14;;;;;;;16.02;9.45;;;;;;;;;;1719725;82;20992;-70
2022/02/11 06:00:39;;;;;;;17.17;9.85;;;;;;;;;;1722817;82;21068;-71
2022/02/11 06:03:05;;;;;;;17.98;9.98;;;;;;;;;;1725915;82;21060;-70
2022/02/11 06:05:35;;;;;;;16.82;8.68;;;;;;;;;;1719740;83;21599;-69
2022/02/11 06:08:01;;;;;;;14.00;6.60;;;;;;;;;;1717671;83;21301;-70
2022/02/11 06:10:27;;;;;;;13.03;7.20;;;;;;;;;;1715468;83;20981;-70
2022/02/11 06:12:53;;;;;;;11.75;6.70;;;;;;;;;;1719580;83;21068;-70
2022/02/11 06:15:19;;;;;;;14.25;7.90;;;;;;;;;;1719889;83;21560;-70
2022/02/11 06:17:45;;;;;;;13.28;7.35;;;;;;;;;;1730169;82;21092;-70
2022/02/11 06:20:11;;;;;;;14.83;7.25;;;;;;;;;;1729839;82;20989;-70
2022/02/11 06:22:39;;;;;;;8.00;5.25;;;;;;;;;;1717012;83;21037;-70
2022/02/11 06:25:05;;;;;;;15.03;7.17;;;;;;;;;;1691680;83;21044;-70
2022/02/11 06:27:33;;;;;;;13.58;6.50;;;;;;;;;;1718795;83;21107;-70
2022/02/11 06:29:59;;;;;;;13.30;6.58;;;;;;;;;;1715227;83;21014;-71
2022/02/11 06:32:27;;;;;;;15.80;9.20;;;;;;;;;;1719852;83;21524;-70
2022/02/11 06:34:56;;;;;;;14.20;7.60;;;;;;;;;;1718402;83;21578;-70
2022/02/11 06:37:21;;;;;;;13.22;7.28;;;;;;;;;;1720025;83;22012;-70
2022/02/11 06:39:47;;;;;;;16.42;9.15;;;;;;;;;;1716858;83;21045;-70
2022/02/11 06:42:13;;;;;;;13.15;6.62;;;;;;;;;;1717120;83;21544;-70
2022/02/11 06:44:41;;;;;;;13.95;8.78;;;;;;;;;;1714435;84;21002;-70
2022/02/11 06:47:07;;;;;;;13.50;7.67;;;;;;;;;;1714586;83;21033;-69
2022/02/11 06:49:32;;;;;;;10.32;6.55;;;;;;;;;;1714626;84;21068;-70
2022/02/11 06:51:58;;;;;;;11.45;5.83;;;;;;;;;;1714518;83;21244;-70
2022/02/11 06:54:24;;;;;;;11.73;6.83;;;;;;;;;;1714758;83;21024;-69
2022/02/11 06:56:50;;;;;;;14.05;7.10;;;;;;;;;;1716256;83;21008;-70
2022/02/11 06:59:16;;;;;;;9.88;5.75;;;;;;;;;;1720114;83;21493;-70
2022/02/11 07:01:42;;;;;;;12.23;6.70;;;;;;;;;;1720065;83;21032;-69
2022/02/11 07:04:08;;;;;;;11.35;5.67;;;;;;;;;;1719858;82;21116;-70
2022/02/11 07:06:34;;;;;;;9.95;5.72;;;;;;;;;;1719664;83;21575;-70
2022/02/11 07:09:00;;;;;;;11.08;5.78;;;;;;;;;;1700993;84;21525;-70
2022/02/11 07:11:26;;;;;;;11.12;5.53;;;;;;;;;;1713635;84;20997;-70
2022/02/11 07:13:53;;;;;;;12.78;6.45;;;;;;;;;;1714642;83;21058;-70
2022/02/11 07:16:19;;;;;;;8.88;5.35;;;;;;;;;;1719150;83;21031;-69
2022/02/11 07:18:46;;;;;;;14.40;6.50;;;;;;;;;;1711385;83;21497;-68
2022/02/11 07:21:12;;;;;;;11.70;5.83;;;;;;;;;;1719460;83;21028;-69
2022/02/11 07:23:38;;;;;;;8.30;5.17;;;;;;;;;;1719769;83;20968;-69
2022/02/11 07:26:04;;;;;;;11.55;6.78;;;;;;;;;;1719975;83;21500;-69
2022/02/11 07:28:30;;;;;;;9.95;5.78;;;;;;;;;;1720066;83;21064;-71
2022/02/11 07:30:58;;;;;;;11.48;6.40;;;;;;;;;;1719628;83;21020;-71
2022/02/11 07:33:24;;;;;;;10.63;5.62;;;;;;;;;;1717414;82;20984;-70
2022/02/11 07:35:50;;;;;;;9.95;5.35;;;;;;;;;;1706503;83;21043;-70
2022/02/11 07:38:16;;;;;;;9.93;5.55;;;;;;;;;;1718612;83;21013;-70
2022/02/11 07:40:42;;;;;;;9.83;5.10;;;;;;;;;;1714570;83;21579;-71
2022/02/11 07:43:10;;;;;;;7.83;5.20;;;;;;;;;;1717489;83;21059;-70
2022/02/11 07:45:37;;;;;;;9.18;6.10;;;;;;;;;;1719794;83;21053;-70
2022/02/11 07:48:03;;;;;;;9.18;5.58;;;;;;;;;;1733244;82;21398;-70
2022/02/11 07:50:30;;;;;;;10.05;5.78;;;;;;;;;;1720270;83;21036;-70
2022/02/11 07:52:56;;;;;;;9.58;5.30;;;;;;;;;;1721136;83;21004;-70
2022/02/11 07:55:22;;;;;;;11.12;5.78;;;;;;;;;;1720148;83;21519;-71
2022/02/11 07:57:48;;;;;;;10.05;6.37;;;;;;;;;;1720178;83;20992;-70
2022/02/11 08:00:15;;;;;;;9.15;5.30;;;;;;;;;;1720099;83;21101;-71
2022/02/11 08:02:41;;;;;;;10.35;6.40;;;;;;;;;;1719919;83;21052;-71
2022/02/11 08:05:07;;;;;;;9.85;5.47;;;;;;;;;;1719254;83;21511;-69
2022/02/11 08:07:34;;;;;;;11.80;5.83;;;;;;;;;;1720067;83;20988;-68
2022/02/11 08:10:00;;;;;;;9.70;5.37;;;;;;;;;;1715861;83;21056;-69
2022/02/11 08:12:27;;;;;;;9.23;6.15;;;;;;;;;;1712470;84;21575;-69
2022/02/11 08:14:55;;;;;;;9.33;5.55;;;;;;;;;;1712165;84;21009;-70
2022/02/11 08:17:20;;;;;;;10.95;6.65;;;;;;;;;;1711502;83;21024;-69
2022/02/11 08:19:46;;;;;;;11.35;7.20;;;;;;;;;;1704471;84;21005;-70
2022/02/11 08:22:12;;;;;;;10.28;6.25;;;;;;;;;;1710681;84;20981;-70
2022/02/11 08:24:39;;;;;;;11.48;6.47;;;;;;;;;;1734177;82;21072;-69
2022/02/11 08:27:07;;;;;;;12.28;6.37;;;;;;;;;;1711927;83;21040;-71
2022/02/11 08:29:35;;;;;;;15.83;7.30;;;;;;;;;;1708518;83;21539;-69
2022/02/11 08:32:01;;;;;;;14.98;7.17;;;;;;;;;;1700079;84;21542;-70
2022/02/11 08:34:27;;;;;;;13.58;7.25;;;;;;;;;;1700126;84;21067;-69
2022/02/11 08:36:53;;;;;;;10.95;6.12;;;;;;;;;;1700157;84;21562;-70
2022/02/11 08:39:19;;;;;;;12.40;6.42;;;;;;;;;;1700282;84;21066;-72
2022/02/11 08:41:45;;;;;;;11.00;6.33;;;;;;;;;;1705759;84;21041;-70
2022/02/11 08:44:11;;;;;;;13.68;6.83;;;;;;;;;;1712411;83;21000;-70
2022/02/11 08:46:37;;;;;;;11.68;7.70;;;;;;;;;;1711431;82;20938;-71
2022/02/11 08:49:02;;;;;;;10.50;6.12;;;;;;;;;;1709853;84;20985;-71
2022/02/11 08:51:29;;;;;;;13.62;7.08;;;;;;;;;;1705943;84;21039;-71
2022/02/11 08:53:56;;;;;;;11.38;5.87;;;;;;;;;;1709072;84;21025;-71
2022/02/11 08:56:22;;;;;;;14.10;6.90;;;;;;;;;;1712184;83;21515;-70
2022/02/11 08:58:48;;;;;;;16.57;8.23;;;;;;;;;;1712217;84;21036;-70
2022/02/11 09:01:14;;;;;;;12.37;7.17;;;;;;;;;;1712001;84;21005;-70
2022/02/11 09:03:40;;;;;;;14.15;7.90;;;;;;;;;;1710634;84;21156;-71
2022/02/11 09:06:06;;;;;;;13.90;8.53;;;;;;;;;;1711126;84;21088;-70
2022/02/11 09:08:34;;;;;;;14.73;7.58;;;;;;;;;;1712050;84;21612;-70
2022/02/11 09:11:01;;;;;;;12.20;7.42;;;;;;;;;;1711981;84;21068;-70
2022/02/11 09:13:27;;;;;;;10.38;6.20;;;;;;;;;;1711809;83;21032;-69
2022/02/11 09:15:54;;;;;;;13.62;7.75;;;;;;;;;;1727600;82;21016;-69
2022/02/11 09:18:20;;;;;;;11.70;6.83;;;;;;;;;;1704958;83;20981;-70
2022/02/11 09:20:48;;;;;;;11.93;6.65;;;;;;;;;;1712738;83;21539;-70
2022/02/11 09:23:15;;;;;;;11.90;7.28;;;;;;;;;;1725452;83;21456;-69
2022/02/11 09:25:40;;;;;;;11.38;6.87;;;;;;;;;;1725390;83;21027;-69
2022/02/11 09:28:06;;;;;;;13.32;8.78;;;;;;;;;;1725465;83;21543;-69
2022/02/11 09:30:33;;;;;;;13.78;7.55;;;;;;;;;;1725407;83;20996;-71
2022/02/11 09:33:00;;;;;;;13.43;7.45;;;;;;;;;;1725378;83;21013;-69
2022/02/11 09:35:28;;;;;;;13.65;8.43;;;;;;;;;;1725364;83;21016;-69
2022/02/11 09:37:54;;;;;;;13.32;8.00;;;;;;;;;;1725339;83;21039;-69
2022/02/11 09:40:20;;;;;;;13.58;7.85;;;;;;;;;;1725348;83;21056;-68
2022/02/11 09:42:46;;;;;;;11.78;6.50;;;;;;;;;;1725426;83;20953;-69
2022/02/11 09:45:14;;;;;;;14.35;7.85;;;;;;;;;;1725268;83;21043;-70
2022/02/11 09:47:40;;;;;;;16.15;10.05;;;;;;;;;;1725257;83;21028;-70
2022/02/11 09:50:06;;;;;;;11.15;7.62;;;;;;;;;;1725443;83;21023;-70
2022/02/11 09:52:37;;;;;;;15.20;7.97;;;;;;;;;;1724972;83;21000;-70
2022/02/11 09:57:49;;;;;;;16.73;8.80;;;;;;;;;;1690678;85;21061;-70
2022/02/11 10:00:15;;;;;;;14.93;8.10;;;;;;;;;;1686970;85;21127;-70
2022/02/11 10:02:50;;;;;;;12.88;6.95;;;;;;;;;;1687757;85;21096;-68
2022/02/11 10:05:21;;;;;;;19.52;9.23;;;;;;;;;;1659368;86;21549;-68
2022/02/11 10:07:48;;;;;;;13.18;7.30;;;;;;;;;;1659377;86;21097;-69
2022/02/11 10:10:18;;;;;;;18.48;9.58;;;;;;;;;;1659886;86;21106;-69
2022/02/11 10:12:42;;;;;;;16.40;8.08;;;;;;;;;;1659356;86;21074;-69
2022/02/11 10:15:10;;;;;;;17.87;9.05;;;;;;;;;;1659978;86;20994;-69
2022/02/11 10:17:39;;;;;;;14.53;7.78;;;;;;;;;;1658404;86;21054;-70
2022/02/11 10:20:06;;;;;;;15.25;8.00;;;;;;;;;;1651995;86;21546;-71
2022/02/11 10:22:33;;;;;;;15.58;8.70;;;;;;;;;;1651377;87;21090;-70
2022/02/11 10:24:59;;;;;;;13.48;6.65;;;;;;;;;;1651829;87;20983;-69
2022/02/11 10:27:29;;;;;;;12.85;7.37;;;;;;;;;;1652064;86;21026;-69
2022/02/11 10:29:56;;;;;;;14.63;10.00;;;;;;;;;;1651677;87;21022;-69
2022/02/11 10:32:37;;;;;;;14.87;8.15;;;;;;;;;;1711977;84;21032;-70
2022/02/11 10:35:03;;;;;;;13.70;7.28;;;;;;;;;;1704439;84;20996;-70
2022/02/11 10:37:29;;;;;;;14.60;8.05;;;;;;;;;;1706501;84;21045;-70
2022/02/11 10:39:56;;;;;;;12.03;6.45;;;;;;;;;;1708098;83;21037;-70
2022/02/11 10:42:22;;;;;;;13.25;7.87;;;;;;;;;;1707756;84;21560;-70
2022/02/11 10:44:48;;;;;;;13.18;8.30;;;;;;;;;;1711849;84;21048;-71
2022/02/11 10:47:15;;;;;;;13.38;7.45;;;;;;;;;;1710783;84;21080;-70
2022/02/11 10:49:43;;;;;;;17.20;7.92;;;;;;;;;;1704810;84;21036;-72
2022/02/11 10:52:13;;;;;;;13.28;7.15;;;;;;;;;;1704296;84;21033;-72
2022/02/11 10:54:39;;;;;;;11.95;6.60;;;;;;;;;;1704765;84;21032;-71
2022/02/11 10:57:06;;;;;;;16.23;7.67;;;;;;;;;;1706365;84;21063;-72
2022/02/11 10:59:36;;;;;;;12.30;6.75;;;;;;;;;;1711467;84;21059;-71
2022/02/11 11:02:02;;;;;;;14.18;7.33;;;;;;;;;;1710636;82;21147;-72
2022/02/11 11:04:28;;;;;;;14.47;7.62;;;;;;;;;;1709990;84;20985;-71
2022/02/11 11:06:54;;;;;;;13.65;6.85;;;;;;;;;;1706767;84;21039;-72
2022/02/11 11:09:21;;;;;;;16.52;8.55;;;;;;;;;;1706624;84;21042;-71
2022/02/11 11:11:48;;;;;;;14.38;7.70;;;;;;;;;;1706454;84;21093;-72
2022/02/11 11:14:15;;;;;;;14.53;7.95;;;;;;;;;;1706688;84;21077;-71
2022/02/11 11:16:42;;;;;;;17.67;8.28;;;;;;;;;;1706737;84;21568;-73
2022/02/11 11:19:08;;;;;;;12.95;7.28;;;;;;;;;;1706610;84;21077;-72
2022/02/11 11:21:35;;;;;;;13.98;8.55;;;;;;;;;;1706785;84;21525;-70
2022/02/11 11:24:03;;;;;;;17.02;7.20;;;;;;;;;;1706735;84;20998;-71
2022/02/11 11:26:43;;;;;;;16.40;7.83;;;;;;;;;;1706755;84;21070;-70
2022/02/11 11:29:16;;;;;;;13.05;7.40;;;;;;;;;;1706771;84;21077;-70
2022/02/11 11:31:58;;;;;;;14.75;9.40;;;;;;;;;;1706670;84;21057;-70
2022/02/11 11:34:25;;;;;;;16.95;8.65;;;;;;;;;;1706856;84;21022;-70
2022/02/11 11:36:52;;;;;;;14.58;8.73;;;;;;;;;;1706644;84;21029;-71
2022/02/11 11:39:20;;;;;;;16.42;7.47;;;;;;;;;;1706749;84;21012;-71
2022/02/11 11:42:00;;;;;;;13.60;7.87;;;;;;;;;;1707820;84;21046;-71
2022/02/11 11:44:26;;;;;;;15.15;8.10;;;;;;;;;;1704056;84;20998;-70
2022/02/11 11:46:53;;;;;;;12.70;7.00;;;;;;;;;;1711185;84;21125;-70
2022/02/11 11:49:26;;;;;;;11.45;5.62;;;;;;;;;;1711692;82;21088;-71
2022/02/11 11:51:52;;;;;;;12.53;7.35;;;;;;;;;;1701343;83;21045;-72
2022/02/11 11:54:21;;;;;;;11.93;6.15;;;;;;;;;;1708926;84;21061;-72
2022/02/11 11:56:52;;;;;;;11.22;5.78;;;;;;;;;;1711858;84;21631;-72
2022/02/11 11:59:20;;;;;;;10.68;5.80;;;;;;;;;;1712020;83;21551;-72
2022/02/11 12:01:52;;;;;;;11.63;7.85;;;;;;;;;;1712463;82;21073;-71
2022/02/11 12:04:22;;;;;;;10.72;6.35;;;;;;;;;;1712538;83;20981;-72
2022/02/11 12:06:47;;;;;;;11.35;7.58;;;;;;;;;;1711989;83;21552;-72
2022/02/11 12:09:15;;;;;;;9.63;6.05;;;;;;;;;;1705411;84;21068;-72
2022/02/11 12:11:41;;;;;;;11.63;7.75;;;;;;;;;;1704637;84;21029;-72
2022/02/11 12:14:06;;;;;;;13.18;7.15;;;;;;;;;;1704632;84;20993;-72
2022/02/11 12:16:32;;;;;;;12.37;6.67;;;;;;;;;;1704529;84;21528;-72
2022/02/11 12:18:59;;;;;;;11.57;6.58;;;;;;;;;;1686549;84;21615;-72
2022/02/11 12:21:25;;;;;;;11.63;6.55;;;;;;;;;;1715177;84;21028;-72
2022/02/11 12:29:21;;;;;;;10.85;6.40;;;;;;;;;;1715601;84;20997;-70
2022/02/11 12:31:50;;;;;;;11.73;8.00;;;;;;;;;;1715275;84;21012;-70
2022/02/11 12:34:20;;;;;;;11.60;6.67;;;;;;;;;;1715288;84;21000;-70
2022/02/11 12:36:46;;;;;;;8.50;5.00;;;;;;;;;;1715189;84;21056;-71
2022/02/11 12:39:20;;;;;;;13.10;6.10;;;;;;;;;;1715276;84;21032;-71
2022/02/11 12:41:50;;;;;;;8.80;5.40;;;;;;;;;;1715005;84;21056;-72
2022/02/11 12:44:26;;;;;;;10.43;6.12;;;;;;;;;;1715383;84;20961;-72
2022/02/11 12:46:52;;;;;;;11.10;6.10;;;;;;;;;;1708700;84;21073;-71
2022/02/11 12:49:21;;;;;;;8.85;5.47;;;;;;;;;;1694945;84;20957;-70
2022/02/11 12:51:50;;;;;;;9.70;5.58;;;;;;;;;;1714241;84;21048;-70
2022/02/11 12:54:16;;;;;;;9.43;5.40;;;;;;;;;;1715021;84;20988;-72
2022/02/11 12:56:42;;;;;;;9.10;5.30;;;;;;;;;;1715171;84;21040;-72
2022/02/11 12:59:08;;;;;;;8.83;4.05;;;;;;;;;;1715067;84;21036;-71
2022/02/11 13:01:34;;;;;;;6.12;3.52;;;;;;;;;;1714937;84;21033;-71
2022/02/11 13:04:00;;;;;;;7.45;3.55;;;;;;;;;;1715116;82;21069;-73
2022/02/11 13:06:27;;;;;;;5.78;3.65;;;;;;;;;;1715255;84;21006;-72
2022/02/11 13:09:03;;;;;;;5.95;3.62;;;;;;;;;;1715406;83;21474;-72
2022/02/11 13:11:30;;;;;;;6.67;3.10;;;;;;;;;;1714971;83;21048;-72
2022/02/11 13:14:00;;;;;;;5.85;3.85;;;;;;;;;;1715281;83;21006;-73
2022/02/11 13:16:26;;;;;;;7.40;3.55;;;;;;;;;;1715399;84;21040;-71
2022/02/11 13:18:53;;;;;;;6.92;4.10;;;;;;;;;;1715290;83;21594;-71
2022/02/11 13:21:21;;;;;;;6.78;3.80;;;;;;;;;;1715197;84;21026;-71
2022/02/11 13:23:50;;;;;;;5.75;3.25;;;;;;;;;;1715424;83;22144;-71
2022/02/11 13:26:15;;;;;;;6.80;3.65;;;;;;;;;;1715438;83;21014;-72
2022/02/11 13:28:43;;;;;;;8.85;3.87;;;;;;;;;;1715520;83;21540;-71
2022/02/11 13:31:08;;;;;;;10.23;4.30;;;;;;;;;;1715325;83;21596;-72
2022/02/11 13:33:35;;;;;;;5.28;3.15;;;;;;;;;;1715377;83;20978;-72
2022/02/11 13:36:08;;;;;;;5.92;2.95;;;;;;;;;;1715222;83;21061;-72
2022/02/11 13:38:35;;;;;;;4.45;2.72;;;;;;;;;;1715408;83;21065;-72
2022/02/11 13:41:03;;;;;;;4.15;2.90;;;;;;;;;;1715554;83;21025;-73
2022/02/11 13:43:31;;;;;;;6.33;3.10;;;;;;;;;;1715170;84;21065;-73
2022/02/11 13:45:58;;;;;;;6.37;3.50;;;;;;;;;;1712608;84;21033;-72
2022/02/11 13:48:24;;;;;;;7.15;3.75;;;;;;;;;;1689066;84;21025;-72
2022/02/11 13:51:12;;;;;;;5.75;3.33;;;;;;;;;;1715364;83;21017;-72
2022/02/11 13:53:39;;;;;;;5.35;2.90;;;;;;;;;;1713306;84;21072;-72
2022/02/11 13:56:06;;;;;;;5.15;3.33;;;;;;;;;;1714868;84;21592;-71
2022/02/11 13:58:35;;;;;;;6.10;3.22;;;;;;;;;;1715301;84;21037;-71
2022/02/11 14:01:03;;;;;;;5.37;2.95;;;;;;;;;;1715298;83;20942;-72
2022/02/11 14:03:30;;;;;;;6.42;3.27;;;;;;;;;;1715013;83;21077;-70
2022/02/11 14:06:04;;;;;;;6.08;3.80;;;;;;;;;;1715322;84;21001;-72
2022/02/11 14:08:41;;;;;;;9.05;3.22;;;;;;;;;;1715025;84;21021;-71
2022/02/11 14:11:08;;;;;;;6.10;3.27;;;;;;;;;;1715480;84;21454;-72
2022/02/11 14:13:34;;;;;;;5.87;3.67;;;;;;;;;;1715302;84;21541;-72
2022/02/11 14:16:00;;;;;;;7.58;3.87;;;;;;;;;;1715239;84;21045;-72
2022/02/11 14:18:26;;;;;;;6.87;3.85;;;;;;;;;;1714985;84;21080;-72
2022/02/11 14:20:53;;;;;;;6.12;3.90;;;;;;;;;;1714998;83;21105;-73
2022/02/11 14:23:21;;;;;;;5.35;3.37;;;;;;;;;;1715260;84;21129;-72
2022/02/11 14:25:47;;;;;;;6.20;2.87;;;;;;;;;;1715374;84;21057;-72
2022/02/11 14:28:14;;;;;;;4.37;2.60;;;;;;;;;;1715168;84;21009;-72
2022/02/11 14:30:40;;;;;;;4.72;2.95;;;;;;;;;;1715427;84;21088;-73
2022/02/11 14:34:42;;;;;;;4.72;2.60;;;;;;;;;;1802171;79;23361;-71
2022/02/11 14:37:08;;;;;;;2.65;1.95;;;;;;;;;;1762316;81;20988;-72
2022/02/11 14:39:34;;;;;;;3.80;1.95;;;;;;;;;;1761993;81;21056;-72
2022/02/11 14:42:02;;;;;;;2.70;1.92;;;;;;;;;;1761995;81;21052;-72
2022/02/11 14:44:30;;;;;;;3.85;2.08;;;;;;;;;;1763730;81;20977;-71
2022/02/11 14:46:56;;;;;;;6.83;2.22;;;;;;;;;;1761669;81;21052;-72
2022/02/11 14:49:23;;;;;;;3.60;1.95;;;;;;;;;;1761745;81;21021;-72
2022/02/11 14:51:50;;;;;;;3.83;2.30;;;;;;;;;;1762148;81;21004;-72
2022/02/11 14:54:16;;;;;;;6.35;2.77;;;;;;;;;;1761909;81;21016;-71
2022/02/11 14:56:43;;;;;;;5.62;2.80;;;;;;;;;;1761701;81;21056;-71
2022/02/11 14:59:10;;;;;;;4.92;2.20;;;;;;;;;;1762094;81;21631;-73
2022/02/11 15:01:36;;;;;;;5.50;2.50;;;;;;;;;;1760667;81;21047;-72
2022/02/11 15:04:02;;;;;;;5.65;2.70;;;;;;;;;;1728331;83;21040;-72
2022/02/11 15:06:28;;;;;;;3.70;2.27;;;;;;;;;;1727684;83;20985;-71
2022/02/11 15:08:54;;;;;;;7.75;3.33;;;;;;;;;;1728323;83;21027;-72
2022/02/11 15:11:20;;;;;;;7.87;2.92;;;;;;;;;;1728391;83;21023;-72
2022/02/11 15:13:46;;;;;;;7.95;3.05;;;;;;;;;;1726821;83;21567;-72
2022/02/11 15:16:14;;;;;;;6.75;3.33;;;;;;;;;;1725156;83;21037;-72
2022/02/11 15:18:39;;;;;;;7.53;3.27;;;;;;;;;;1728425;83;21000;-72
2022/02/11 15:21:06;;;;;;;10.88;4.08;;;;;;;;;;1727661;83;21063;-73
2022/02/11 15:23:33;;;;;;;10.58;3.95;;;;;;;;;;1722335;83;21080;-73
2022/02/11 15:26:02;;;;;;;7.40;3.22;;;;;;;;;;1724571;83;21031;-73
2022/02/11 15:28:30;;;;;;;11.68;4.37;;;;;;;;;;1728142;83;20992;-74
2022/02/11 15:30:56;;;;;;;5.50;2.60;;;;;;;;;;1728365;83;21047;-74
2022/02/11 15:33:24;;;;;;;5.62;3.10;;;;;;;;;;1721569;83;21540;-73
2022/02/11 15:35:50;;;;;;;7.28;3.27;;;;;;;;;;1715932;84;21001;-73
2022/02/11 15:38:18;;;;;;;6.83;2.90;;;;;;;;;;1712151;84;21095;-73
2022/02/11 15:40:43;;;;;;;5.47;2.47;;;;;;;;;;1688269;83;21082;-73
2022/02/11 15:43:09;;;;;;;7.10;3.25;;;;;;;;;;1657326;85;21128;-73
2022/02/11 15:45:36;;;;;;;7.30;3.70;;;;;;;;;;1650187;87;21091;-73
2022/02/11 15:48:02;;;;;;;6.00;3.22;;;;;;;;;;1650583;85;21012;-73
2022/02/11 15:50:29;;;;;;;5.75;3.02;;;;;;;;;;1715340;84;21488;-74
2022/02/11 15:52:55;;;;;;;8.48;3.77;;;;;;;;;;1715362;84;21426;-73
2022/02/11 15:55:21;;;;;;;7.35;3.45;;;;;;;;;;1715538;83;21017;-74
2022/02/11 15:57:47;;;;;;;7.10;3.50;;;;;;;;;;1715400;84;21032;-73
2022/02/11 16:00:15;;;;;;;8.75;3.67;;;;;;;;;;1715422;83;21080;-74
2022/02/11 16:02:42;;;;;;;12.37;4.15;;;;;;;;;;1715319;82;21087;-74
2022/02/11 16:05:09;;;;;;;7.90;4.05;;;;;;;;;;1715376;84;21036;-74
2022/02/11 16:07:36;;;;;;;7.15;3.55;;;;;;;;;;1715399;83;21068;-72
2022/02/11 16:10:03;;;;;;;17.77;7.67;;;;;;;;;;1723186;82;20981;-68
2022/02/11 16:12:31;;;;;;;14.03;5.30;;;;;;;;;;1725510;82;21504;-67
2022/02/11 16:14:58;;;;;;;10.03;5.17;;;;;;;;;;1717109;82;21590;-71
2022/02/11 16:17:24;;;;;;;9.70;4.80;;;;;;;;;;1712856;82;21048;-74
2022/02/11 16:19:50;;;;;;;8.08;4.50;;;;;;;;;;1697171;84;21584;-73
2022/02/11 16:22:19;;;;;;;9.53;4.58;;;;;;;;;;1685300;85;21040;-73
2022/02/11 16:24:46;;;;;;;7.95;3.98;;;;;;;;;;1709440;82;21109;-73
2022/02/11 16:27:15;;;;;;;10.58;6.53;;;;;;;;;;1715237;84;21040;-73
2022/02/11 16:29:42;;;;;;;9.25;5.15;;;;;;;;;;1715453;84;21596;-73
2022/02/11 16:32:08;;;;;;;10.80;5.45;;;;;;;;;;1714479;84;21005;-73
2022/02/11 16:34:33;;;;;;;12.35;6.20;;;;;;;;;;1713674;84;21119;-74
2022/02/11 16:36:59;;;;;;;10.65;5.72;;;;;;;;;;1713989;83;20966;-73
2022/02/11 16:39:25;;;;;;;16.90;7.60;;;;;;;;;;1707934;83;21546;-73
2022/02/11 16:41:51;;;;;;;11.40;6.12;;;;;;;;;;1717568;83;21036;-74
2022/02/11 16:44:18;;;;;;;14.63;7.67;;;;;;;;;;1713834;84;21029;-73
2022/02/11 16:46:45;;;;;;;11.22;6.22;;;;;;;;;;1695669;84;21072;-73
2022/02/11 16:49:13;;;;;;;13.43;6.62;;;;;;;;;;1700808;84;21036;-73
2022/02/11 16:51:40;;;;;;;13.85;7.15;;;;;;;;;;1708317;84;20974;-73
2022/02/11 16:54:06;;;;;;;17.35;8.48;;;;;;;;;;1715128;83;21075;-73
2022/02/11 16:56:32;;;;;;;17.62;7.37;;;;;;;;;;1704941;83;21052;-73
2022/02/11 16:58:58;;;;;;;14.05;8.20;;;;;;;;;;1720580;82;21009;-74
2022/02/11 17:01:24;;;;;;;11.40;6.35;;;;;;;;;;1711357;83;21081;-74
2022/02/11 17:03:50;;;;;;;14.65;7.35;;;;;;;;;;1722864;82;20951;-73
2022/02/11 17:06:16;;;;;;;12.58;6.65;;;;;;;;;;1714064;82;21047;-73
2022/02/11 17:08:45;;;;;;;18.77;7.20;;;;;;;;;;1718068;83;21532;-73
2022/02/11 17:11:14;;;;;;;14.90;8.03;;;;;;;;;;1723788;82;21057;-72
2022/02/11 17:13:42;;;;;;;13.45;7.08;;;;;;;;;;1727139;82;21115;-73
2022/02/11 17:16:08;;;;;;;13.43;7.12;;;;;;;;;;1713948;83;21037;-72
2022/02/11 17:18:34;;;;;;;15.78;8.13;;;;;;;;;;1717564;83;21527;-73
2022/02/11 17:21:01;;;;;;;16.40;8.55;;;;;;;;;;1722509;82;21521;-74
2022/02/11 17:23:28;;;;;;;13.75;7.05;;;;;;;;;;1715207;82;20970;-74
2022/02/11 17:25:54;;;;;;;15.70;6.75;;;;;;;;;;1721240;82;20998;-74
2022/02/11 17:28:22;;;;;;;21.07;9.10;;;;;;;;;;1722236;82;21014;-75
2022/02/11 17:30:49;;;;;;;16.87;8.58;;;;;;;;;;1715176;83;21484;-74
2022/02/11 17:33:19;;;;;;;16.87;8.80;;;;;;;;;;1721260;82;21060;-76
2022/02/11 17:35:56;;;;;;;20.10;10.85;;;;;;;;;;1720999;82;21750;-73
2022/02/11 17:38:24;;;;;;;30.77;13.50;;;;;;;;;;1683546;85;21544;-74
2022/02/11 17:40:50;;;;;;;25.75;11.63;;;;;;;;;;1719545;82;21052;-74
2022/02/11 17:43:17;;;;;;;18.20;8.88;;;;;;;;;;1714947;83;22010;-73
2022/02/11 17:45:43;;;;;;;20.62;10.68;;;;;;;;;;1703742;83;21357;-74
2022/02/11 17:48:10;;;;;;;22.82;10.10;;;;;;;;;;1709579;82;21053;-74
2022/02/11 17:50:35;;;;;;;21.50;10.18;;;;;;;;;;1710843;82;21068;-74
2022/02/11 17:53:01;;;;;;;24.25;11.15;;;;;;;;;;1711567;83;21036;-74
2022/02/11 17:55:28;;;;;;;18.45;9.15;;;;;;;;;;1715673;83;21097;-73
2022/02/11 17:57:54;;;;;;;24.50;10.25;;;;;;;;;;1716314;82;21029;-73
2022/02/11 18:00:20;;;;;;;25.27;11.97;;;;;;;;;;1710702;84;21111;-73
2022/02/11 18:02:46;;;;;;;35.92;15.65;;;;;;;;;;1710221;82;21606;-73
2022/02/11 18:05:19;;;;;;;36.53;15.43;;;;;;;;;;1708593;83;21547;-74
2022/02/11 18:07:40;;;;;;;32.25;15.30;;;;;;;;;;1694157;82;21603;-73
2022/02/11 18:10:07;;;;;;;31.37;13.78;;;;;;;;;;1706757;83;20957;-73
2022/02/11 18:12:35;;;;;;;35.23;15.72;;;;;;;;;;1713586;83;21012;-73